Time;durP1;ratioP1;P1;durP2;ratioP2;P2;SDS_P1;SDS_P2;PMS_P1;PMS_P2;Temp;Humidity;BMP_temperature;BMP_pressure;BME280_temperature;BME280_humidity;BME280_pressure;Samples;Min_cycle;Max_cycle;Signal;HPM_P1;HPM_P2
2021/06/10 00:01:59;;;;;;;;;;;21.60;68.90;;;;;;4302889;33;20446;-71
2021/06/10 00:04:26;;;;;;;;;;;21.70;69.00;;;;;;4303169;33;21625;-71
2021/06/10 00:06:53;;;;;;;;;;;21.60;68.90;;;;;;4302639;33;20010;-71
2021/06/10 00:09:20;;;;;;;;;;;21.60;68.90;;;;;;4303708;33;20006;-71
2021/06/10 00:11:47;;;;;;;;;;;21.60;68.90;;;;;;4289204;33;25717;-71
2021/06/10 00:14:15;;;;;;;;;;;21.60;68.90;;;;;;4303021;33;21500;-71
2021/06/10 00:16:42;;;;;;;;;;;21.60;68.80;;;;;;4289505;33;21898;-71
2021/06/10 00:19:12;;;;;;;;;;;21.60;68.80;;;;;;4290001;33;20140;-72
2021/06/10 00:21:40;;;;;;;;;;;21.50;68.70;;;;;;4303142;33;20006;-72
2021/06/10 00:24:07;;;;;;;;;;;21.50;68.70;;;;;;4303047;33;20423;-71
2021/06/10 00:26:35;;;;;;;;;;;21.50;68.80;;;;;;4302881;33;20006;-72
2021/06/10 00:29:02;;;;;;;;;;;21.50;68.80;;;;;;4289172;33;22968;-72
2021/06/10 00:31:30;;;;;;;;;;;21.50;68.80;;;;;;4303054;33;20002;-72
2021/06/10 00:33:57;;;;;;;;;;;21.50;68.70;;;;;;4302989;33;20057;-72
2021/06/10 00:36:25;;;;;;;;;;;21.40;68.60;;;;;;4302242;33;22388;-72
2021/06/10 00:38:52;;;;;;;;;;;21.40;68.60;;;;;;4302619;33;24902;-72
2021/06/10 00:41:19;;;;;;;;;;;21.40;68.70;;;;;;4302704;33;20469;-72
2021/06/10 00:43:47;;;;;;;;;;;21.40;68.70;;;;;;4289077;33;26227;-72
2021/06/10 00:46:14;;;;;;;;;;;21.40;68.80;;;;;;4289205;33;20018;-71
2021/06/10 00:48:41;;;;;;;;;;;21.30;68.70;;;;;;4302727;33;20396;-72
2021/06/10 00:51:08;;;;;;;;;;;21.30;68.70;;;;;;4289095;33;21735;-72
2021/06/10 00:53:36;;;;;;;;;;;21.30;68.70;;;;;;4302223;33;21883;-72
2021/06/10 00:56:05;;;;;;;;;;;21.30;68.70;;;;;;4302711;33;22657;-72
2021/06/10 00:58:33;;;;;;;;;;;21.30;68.80;;;;;;4302445;33;20022;-72
2021/06/10 01:01:01;;;;;;;;;;;21.30;68.80;;;;;;4302509;33;20014;-72
2021/06/10 01:03:28;;;;;;;;;;;21.30;68.80;;;;;;4302298;33;20092;-72
2021/06/10 01:05:57;;;;;;;;;;;21.20;68.80;;;;;;4302840;33;20006;-72
2021/06/10 01:08:47;;;;;;;;;;;21.20;68.90;;;;;;4302623;33;20002;-72
2021/06/10 01:11:41;;;;;;;;;;;21.20;68.90;;;;;;4302281;33;20046;-72
2021/06/10 01:14:09;;;;;;;;;;;21.20;68.90;;;;;;4286762;33;25518;-72
2021/06/10 01:16:38;;;;;;;;;;;21.20;68.90;;;;;;4302322;33;20706;-71
2021/06/10 01:19:17;;;;;;;;;;;21.20;69.00;;;;;;4302158;33;20003;-72
2021/06/10 01:21:44;;;;;;;;;;;21.20;69.00;;;;;;4302403;33;20020;-72
2021/06/10 01:24:21;;;;;;;;;;;21.10;68.90;;;;;;4302438;33;20009;-72
2021/06/10 01:26:54;;;;;;;;;;;21.10;68.90;;;;;;4302248;33;21690;-71
2021/06/10 01:29:22;;;;;;;;;;;21.10;69.00;;;;;;4302250;33;20019;-71
2021/06/10 01:31:50;;;;;;;;;;;21.10;69.10;;;;;;4289066;33;20388;-71
2021/06/10 01:34:18;;;;;;;;;;;21.10;69.20;;;;;;4302657;33;20096;-71
2021/06/10 01:36:46;;;;;;;;;;;21.10;69.20;;;;;;4301532;33;24747;-73
2021/06/10 01:39:16;;;;;;;;;;;21.10;69.20;;;;;;4302201;33;20020;-71
2021/06/10 01:41:43;;;;;;;;;;;21.10;69.20;;;;;;4289201;33;21393;-71
2021/06/10 01:44:11;;;;;;;;;;;21.10;69.20;;;;;;4302352;33;20013;-71
2021/06/10 01:46:39;;;;;;;;;;;21.10;69.20;;;;;;4302478;33;20079;-71
2021/06/10 01:49:10;;;;;;;;;;;21.10;69.20;;;;;;4302296;33;19994;-71
2021/06/10 01:51:38;;;;;;;;;;;21.00;69.20;;;;;;4289279;33;20010;-71
2021/06/10 01:54:06;;;;;;;;;;;21.00;69.10;;;;;;4301938;33;20013;-71
2021/06/10 01:56:35;;;;;;;;;;;21.00;69.10;;;;;;4276819;33;23917;-71
2021/06/10 01:59:03;;;;;;;;;;;21.00;69.20;;;;;;4301994;33;20014;-71
2021/06/10 02:01:31;;;;;;;;;;;21.00;69.20;;;;;;4301985;33;20399;-71
2021/06/10 02:03:58;;;;;;;;;;;21.00;69.20;;;;;;4302197;33;20097;-72
2021/06/10 02:06:27;;;;;;;;;;;21.00;69.30;;;;;;4302257;33;20010;-71
2021/06/10 02:08:54;;;;;;;;;;;20.90;69.20;;;;;;4302182;33;20013;-71
2021/06/10 02:11:21;;;;;;;;;;;20.90;69.20;;;;;;4302050;33;20380;-71
2021/06/10 02:13:49;;;;;;;;;;;20.90;69.20;;;;;;4301973;33;20118;-71
2021/06/10 02:16:17;;;;;;;;;;;20.90;69.20;;;;;;4289032;33;20408;-71
2021/06/10 02:18:46;;;;;;;;;;;20.90;69.30;;;;;;4289016;33;20022;-71
2021/06/10 02:21:14;;;;;;;;;;;20.90;69.20;;;;;;4302350;33;20014;-71
2021/06/10 02:23:42;;;;;;;;;;;20.90;69.20;;;;;;4301571;33;20934;-71
2021/06/10 02:26:10;;;;;;;;;;;20.90;69.30;;;;;;4301207;33;23670;-71
2021/06/10 02:28:37;;;;;;;;;;;20.90;69.40;;;;;;4301704;33;20018;-71
2021/06/10 02:31:06;;;;;;;;;;;20.80;69.40;;;;;;4302158;33;20020;-72
2021/06/10 02:33:35;;;;;;;;;;;20.80;69.40;;;;;;4289120;33;20018;-71
2021/06/10 02:36:04;;;;;;;;;;;20.80;69.60;;;;;;4291884;33;20062;-71
2021/06/10 02:38:31;;;;;;;;;;;20.80;69.70;;;;;;4304314;33;20061;-72
2021/06/10 02:41:00;;;;;;;;;;;20.80;69.80;;;;;;4304311;33;20061;-71
2021/06/10 02:43:30;;;;;;;;;;;20.80;69.90;;;;;;4291320;33;23083;-71
2021/06/10 02:45:57;;;;;;;;;;;20.80;69.90;;;;;;4304230;33;20006;-71
2021/06/10 02:48:27;;;;;;;;;;;20.70;70.00;;;;;;4304185;33;20028;-71
2021/06/10 02:50:54;;;;;;;;;;;20.70;70.00;;;;;;4303698;33;22977;-71
2021/06/10 02:53:22;;;;;;;;;;;20.70;70.20;;;;;;4290813;33;23354;-71
2021/06/10 02:55:49;;;;;;;;;;;20.60;70.20;;;;;;4304216;33;20105;-71
2021/06/10 02:58:17;;;;;;;;;;;20.60;70.30;;;;;;4304105;33;20906;-72
2021/06/10 03:00:45;;;;;;;;;;;20.60;70.30;;;;;;4303932;33;20003;-71
2021/06/10 03:03:13;;;;;;;;;;;20.60;70.30;;;;;;4303999;33;20014;-71
2021/06/10 03:05:42;;;;;;;;;;;20.60;70.30;;;;;;4303984;33;20051;-71
2021/06/10 03:08:13;;;;;;;;;;;20.60;70.40;;;;;;4304227;33;20073;-71
2021/06/10 03:10:41;;;;;;;;;;;20.60;70.60;;;;;;4290947;33;23956;-71
2021/06/10 03:13:08;;;;;;;;;;;20.50;70.60;;;;;;4304232;33;20025;-71
2021/06/10 03:15:36;;;;;;;;;;;20.50;70.80;;;;;;4304009;33;23069;-71
2021/06/10 03:18:04;;;;;;;;;;;20.40;71.00;;;;;;4303740;33;20017;-71
2021/06/10 03:20:31;;;;;;;;;;;20.40;71.20;;;;;;4303824;33;20422;-71
2021/06/10 03:22:59;;;;;;;;;;;20.30;71.30;;;;;;4303790;33;20006;-70
2021/06/10 03:25:26;;;;;;;;;;;20.30;71.30;;;;;;4303029;33;43487;-71
2021/06/10 03:27:54;;;;;;;;;;;20.30;71.50;;;;;;4303024;33;42821;-71
2021/06/10 03:30:22;;;;;;;;;;;20.30;71.60;;;;;;4302695;33;44061;-71
2021/06/10 03:32:52;;;;;;;;;;;20.30;71.60;;;;;;4304451;33;20007;-71
2021/06/10 03:35:20;;;;;;;;;;;20.30;71.70;;;;;;4302930;33;43918;-71
2021/06/10 03:37:48;;;;;;;;;;;20.20;71.70;;;;;;4302455;33;44608;-71
2021/06/10 03:40:16;;;;;;;;;;;20.30;71.70;;;;;;4302887;33;43206;-71
2021/06/10 03:42:44;;;;;;;;;;;20.30;71.80;;;;;;4302862;33;44453;-71
2021/06/10 03:45:12;;;;;;;;;;;20.20;71.80;;;;;;4302097;33;33225;-71
2021/06/10 03:47:42;;;;;;;;;;;20.20;71.90;;;;;;4302337;33;40813;-71
2021/06/10 03:50:09;;;;;;;;;;;20.20;71.90;;;;;;4302636;33;43665;-71
2021/06/10 03:52:36;;;;;;;;;;;20.20;71.90;;;;;;4302160;33;43655;-71
2021/06/10 03:55:07;;;;;;;;;;;20.20;71.80;;;;;;4316748;33;42316;-71
2021/06/10 03:57:35;;;;;;;;;;;20.20;71.90;;;;;;4317407;33;35202;-71
2021/06/10 04:00:07;;;;;;;;;;;20.20;71.90;;;;;;4318205;33;20005;-71
2021/06/10 04:02:35;;;;;;;;;;;20.20;72.10;;;;;;4316878;33;44875;-71
2021/06/10 04:05:03;;;;;;;;;;;20.10;72.10;;;;;;4317069;33;43672;-71
2021/06/10 04:07:30;;;;;;;;;;;20.10;72.30;;;;;;4316975;33;41441;-71
2021/06/10 04:09:57;;;;;;;;;;;20.10;72.40;;;;;;4317362;33;44475;-71
2021/06/10 04:12:24;;;;;;;;;;;20.00;72.60;;;;;;4316745;33;43632;-71
2021/06/10 04:14:52;;;;;;;;;;;20.00;72.70;;;;;;4317089;33;44655;-72
2021/06/10 04:17:19;;;;;;;;;;;20.00;72.60;;;;;;4316778;33;43398;-71
2021/06/10 04:19:46;;;;;;;;;;;20.00;72.60;;;;;;4303791;33;43386;-72
2021/06/10 04:22:13;;;;;;;;;;;20.00;72.50;;;;;;4316833;33;43661;-71
2021/06/10 04:24:40;;;;;;;;;;;20.10;72.40;;;;;;4316465;33;44497;-70
2021/06/10 04:27:08;;;;;;;;;;;20.10;72.30;;;;;;4316463;33;43394;-70
2021/06/10 04:29:35;;;;;;;;;;;20.10;72.20;;;;;;4316659;33;43394;-71
2021/06/10 04:32:02;;;;;;;;;;;20.10;72.30;;;;;;4316713;33;43380;-71
2021/06/10 04:34:29;;;;;;;;;;;20.10;72.20;;;;;;4316204;33;42795;-71
2021/06/10 04:36:57;;;;;;;;;;;20.10;72.20;;;;;;4316881;33;41877;-71
2021/06/10 04:39:24;;;;;;;;;;;20.10;72.30;;;;;;4291166;33;35283;-71
2021/06/10 04:41:51;;;;;;;;;;;20.10;72.40;;;;;;4316571;33;44789;-71
2021/06/10 04:44:18;;;;;;;;;;;20.10;72.40;;;;;;4316384;33;33884;-71
2021/06/10 04:46:45;;;;;;;;;;;20.10;72.40;;;;;;4316517;33;44334;-71
2021/06/10 04:49:13;;;;;;;;;;;20.10;72.50;;;;;;4316470;33;43284;-71
2021/06/10 04:51:40;;;;;;;;;;;20.10;72.70;;;;;;4303750;33;44053;-71
2021/06/10 04:54:07;;;;;;;;;;;20.00;72.60;;;;;;4316132;33;43351;-71
2021/06/10 04:56:34;;;;;;;;;;;20.10;72.90;;;;;;4303079;33;44233;-71
2021/06/10 04:59:01;;;;;;;;;;;20.00;72.80;;;;;;4316285;33;40876;-71
2021/06/10 05:01:28;;;;;;;;;;;20.00;72.80;;;;;;4303314;33;43263;-71
2021/06/10 05:03:55;;;;;;;;;;;20.00;72.80;;;;;;4315993;33;40830;-72
2021/06/10 05:06:22;;;;;;;;;;;20.00;72.90;;;;;;4316278;33;43464;-71
2021/06/10 05:08:50;;;;;;;;;;;20.00;73.80;;;;;;4302737;33;44045;-71
2021/06/10 05:11:17;;;;;;;;;;;20.00;73.00;;;;;;4317405;33;20073;-71
2021/06/10 05:13:44;;;;;;;;;;;20.00;73.00;;;;;;4317012;33;20002;-71
2021/06/10 05:16:11;;;;;;;;;;;20.00;73.10;;;;;;4316960;33;20462;-71
2021/06/10 05:18:38;;;;;;;;;;;19.90;73.10;;;;;;4316736;33;20012;-71
2021/06/10 05:21:08;;;;;;;;;;;19.90;74.00;;;;;;4316768;33;20014;-71
2021/06/10 05:23:38;;;;;;;;;;;19.90;73.30;;;;;;4316330;33;21092;-71
2021/06/10 05:26:05;;;;;;;;;;;19.90;73.50;;;;;;4304025;33;20017;-70
2021/06/10 05:28:35;;;;;;;;;;;19.90;73.60;;;;;;4303730;33;20020;-71
2021/06/10 05:31:05;;;;;;;;;;;19.90;73.70;;;;;;4316247;33;22764;-71
2021/06/10 05:33:32;;;;;;;;;;;19.90;73.70;;;;;;4304093;33;20064;-70
2021/06/10 05:36:00;;;;;;;;;;;19.90;73.70;;;;;;4303588;33;25690;-71
2021/06/10 05:38:27;;;;;;;;;;;19.90;73.80;;;;;;4316686;33;21712;-71
2021/06/10 05:40:54;;;;;;;;;;;19.90;73.90;;;;;;4316707;33;20722;-70
2021/06/10 05:43:23;;;;;;;;;;;19.80;74.00;;;;;;4316734;33;20016;-71
2021/06/10 05:45:52;;;;;;;;;;;19.80;74.10;;;;;;4291874;33;19994;-71
2021/06/10 05:48:20;;;;;;;;;;;19.80;74.30;;;;;;4316724;33;20069;-71
2021/06/10 05:50:48;;;;;;;;;;;19.90;74.40;;;;;;4316573;33;23921;-70
2021/06/10 05:53:18;;;;;;;;;;;19.90;74.50;;;;;;4303471;33;20425;-71
2021/06/10 05:55:48;;;;;;;;;;;19.90;74.50;;;;;;4303522;33;23029;-70
2021/06/10 05:58:15;;;;;;;;;;;19.90;74.60;;;;;;4317000;33;20020;-71
2021/06/10 06:00:42;;;;;;;;;;;19.90;74.60;;;;;;4316942;33;20023;-71
2021/06/10 06:03:10;;;;;;;;;;;19.90;74.80;;;;;;4316166;33;20056;-70
2021/06/10 06:05:37;;;;;;;;;;;19.90;74.80;;;;;;4316513;33;20044;-70
2021/06/10 06:08:04;;;;;;;;;;;19.90;74.80;;;;;;4316820;33;20006;-71
2021/06/10 06:10:31;;;;;;;;;;;19.90;75.00;;;;;;4318803;33;20719;-71
2021/06/10 06:13:01;;;;;;;;;;;19.90;75.10;;;;;;4319339;33;20037;-71
2021/06/10 06:15:29;;;;;;;;;;;19.90;75.10;;;;;;4319743;33;19994;-71
2021/06/10 06:17:56;;;;;;;;;;;19.90;75.30;;;;;;4306614;33;20019;-71
2021/06/10 06:20:23;;;;;;;;;;;19.90;75.30;;;;;;4319232;33;24340;-71
2021/06/10 06:22:50;;;;;;;;;;;19.90;75.40;;;;;;4319038;33;22665;-71
2021/06/10 06:25:18;;;;;;;;;;;19.90;75.50;;;;;;4319323;33;20006;-71
2021/06/10 06:27:46;;;;;;;;;;;19.90;75.60;;;;;;4319045;33;20378;-71
2021/06/10 06:30:13;;;;;;;;;;;19.90;75.70;;;;;;4305747;33;21509;-71
2021/06/10 06:32:41;;;;;;;;;;;19.90;75.80;;;;;;4305233;33;22623;-71
2021/06/10 06:35:08;;;;;;;;;;;19.90;75.80;;;;;;4318688;33;20017;-71
2021/06/10 06:37:36;;;;;;;;;;;19.90;75.80;;;;;;4319073;33;20029;-71
2021/06/10 06:40:04;;;;;;;;;;;19.90;75.90;;;;;;4305964;33;20002;-71
2021/06/10 06:42:32;;;;;;;;;;;19.90;76.10;;;;;;4319211;33;20010;-71
2021/06/10 06:45:00;;;;;;;;;;;19.90;76.20;;;;;;4305674;33;19998;-71
2021/06/10 06:47:27;;;;;;;;;;;19.90;76.20;;;;;;4319170;33;20009;-71
2021/06/10 06:49:54;;;;;;;;;;;19.90;76.30;;;;;;4318744;33;23944;-71
2021/06/10 06:52:21;;;;;;;;;;;20.00;76.40;;;;;;4318754;33;21637;-71
2021/06/10 06:54:48;;;;;;;;;;;20.00;76.40;;;;;;4318377;33;20419;-71
2021/06/10 06:57:15;;;;;;;;;;;20.00;76.50;;;;;;4318277;33;24259;-71
2021/06/10 06:59:44;;;;;;;;;;;20.00;76.50;;;;;;4318346;33;19997;-71
2021/06/10 07:02:11;;;;;;;;;;;20.00;76.50;;;;;;4305296;33;20186;-71
2021/06/10 07:04:38;;;;;;;;;;;20.00;76.60;;;;;;4319241;33;20006;-70
2021/06/10 07:07:05;;;;;;;;;;;20.00;76.60;;;;;;4318005;33;23969;-72
2021/06/10 07:09:33;;;;;;;;;;;20.00;76.60;;;;;;4304994;33;20383;-71
2021/06/10 07:12:00;;;;;;;;;;;20.00;76.60;;;;;;4317546;33;44535;-71
2021/06/10 07:14:27;;;;;;;;;;;20.00;76.60;;;;;;4317500;33;43307;-71
2021/06/10 07:16:54;;;;;;;;;;;20.10;76.60;;;;;;4317725;33;42420;-71
2021/06/10 07:19:22;;;;;;;;;;;20.10;76.70;;;;;;4317540;33;44965;-71
2021/06/10 07:21:49;;;;;;;;;;;20.10;76.60;;;;;;4317958;33;20052;-71
2021/06/10 07:24:36;;;;;;;;;;;20.10;76.60;;;;;;4304554;33;43846;-70
2021/06/10 07:27:04;;;;;;;;;;;20.10;76.60;;;;;;4317648;33;42800;-71
2021/06/10 07:29:31;;;;;;;;;;;20.10;76.70;;;;;;4317026;33;44009;-71
2021/06/10 07:32:00;;;;;;;;;;;20.10;76.80;;;;;;4318868;33;20401;-71
2021/06/10 07:34:28;;;;;;;;;;;20.20;76.70;;;;;;4317490;33;42512;-71
2021/06/10 07:36:55;;;;;;;;;;;20.20;76.70;;;;;;4317961;33;29663;-71
2021/06/10 07:39:22;;;;;;;;;;;20.30;76.70;;;;;;4317161;33;38193;-71
2021/06/10 07:41:49;;;;;;;;;;;20.20;76.60;;;;;;4316948;33;44735;-71
2021/06/10 07:44:18;;;;;;;;;;;20.30;76.70;;;;;;4316909;33;43661;-71
2021/06/10 07:46:45;;;;;;;;;;;20.30;76.70;;;;;;4317345;33;43458;-71
2021/06/10 07:49:13;;;;;;;;;;;20.30;76.80;;;;;;4317232;33;28664;-71
2021/06/10 07:51:40;;;;;;;;;;;20.30;76.70;;;;;;4316961;33;43354;-71
2021/06/10 07:54:07;;;;;;;;;;;20.30;76.70;;;;;;4316981;33;43082;-71
2021/06/10 07:56:34;;;;;;;;;;;20.30;76.60;;;;;;4317039;33;44898;-71
2021/06/10 07:59:01;;;;;;;;;;;20.40;76.70;;;;;;4317347;33;43619;-71
2021/06/10 08:01:28;;;;;;;;;;;20.40;76.70;;;;;;4303756;33;43661;-71
2021/06/10 08:03:55;;;;;;;;;;;20.40;76.70;;;;;;4316605;33;41419;-71
2021/06/10 08:06:23;;;;;;;;;;;20.40;76.70;;;;;;4316621;33;42373;-71
2021/06/10 08:08:50;;;;;;;;;;;20.40;76.70;;;;;;4317112;33;45212;-71
2021/06/10 08:11:17;;;;;;;;;;;20.40;76.60;;;;;;4317151;33;40597;-71
2021/06/10 08:13:45;;;;;;;;;;;20.40;76.60;;;;;;4316629;33;42430;-76
2021/06/10 08:16:12;;;;;;;;;;;20.50;76.70;;;;;;4316440;33;41739;-76
2021/06/10 08:18:39;;;;;;;;;;;20.50;76.60;;;;;;4303474;33;43446;-72
2021/06/10 08:21:06;;;;;;;;;;;20.50;76.50;;;;;;4303775;33;45572;-72
2021/06/10 08:23:33;;;;;;;;;;;20.50;76.50;;;;;;4303606;33;44348;-73
2021/06/10 08:26:02;;;;;;;;;;;20.50;76.40;;;;;;4316571;33;34227;-73
2021/06/10 08:28:30;;;;;;;;;;;20.60;76.50;;;;;;4316241;33;43575;-74
2021/06/10 08:30:57;;;;;;;;;;;20.60;76.50;;;;;;4302887;33;42107;-73
2021/06/10 08:33:24;;;;;;;;;;;20.60;76.40;;;;;;4316994;33;20010;-73
2021/06/10 08:35:52;;;;;;;;;;;20.60;76.30;;;;;;4304351;33;20502;-73
2021/06/10 08:38:19;;;;;;;;;;;20.60;76.20;;;;;;4317089;33;20905;-74
2021/06/10 08:40:47;;;;;;;;;;;20.60;76.10;;;;;;4303825;33;25195;-74
2021/06/10 08:43:14;;;;;;;;;;;20.70;76.10;;;;;;4317194;33;20022;-75
2021/06/10 08:45:46;;;;;;;;;;;20.70;76.00;;;;;;4304494;33;20390;-74
2021/06/10 08:48:14;;;;;;;;;;;20.70;75.90;;;;;;4304126;33;20053;-74
2021/06/10 08:50:43;;;;;;;;;;;20.70;75.80;;;;;;4317812;33;20044;-73
2021/06/10 08:53:11;;;;;;;;;;;20.70;75.80;;;;;;4303364;33;23372;-74
2021/06/10 08:55:38;;;;;;;;;;;20.80;75.40;;;;;;4316944;33;25482;-73
2021/06/10 08:58:05;;;;;;;;;;;20.80;75.40;;;;;;4317289;33;20005;-73
2021/06/10 09:00:35;;;;;;;;;;;20.80;75.40;;;;;;4317043;33;20009;-73
2021/06/10 09:03:02;;;;;;;;;;;20.90;75.50;;;;;;4316814;33;21995;-73
2021/06/10 09:05:30;;;;;;;;;;;20.90;75.30;;;;;;4304230;33;20030;-72
2021/06/10 09:07:58;;;;;;;;;;;20.90;75.20;;;;;;4316582;33;20021;-72
2021/06/10 09:10:26;;;;;;;;;;;20.90;75.20;;;;;;4316696;33;20017;-73
2021/06/10 09:12:56;;;;;;;;;;;20.90;75.20;;;;;;4317103;33;20010;-72
2021/06/10 09:15:26;;;;;;;;;;;21.00;75.20;;;;;;4316882;33;23829;-72
2021/06/10 09:18:00;;;;;;;;;;;21.00;75.20;;;;;;4317306;33;20016;-72
2021/06/10 09:20:34;;;;;;;;;;;21.00;75.10;;;;;;4317102;33;19998;-72
2021/06/10 09:23:07;;;;;;;;;;;21.00;74.90;;;;;;4317245;33;20010;-71
2021/06/10 09:25:35;;;;;;;;;;;21.00;75.00;;;;;;4317248;33;20024;-72
2021/06/10 09:28:04;;;;;;;;;;;21.10;75.00;;;;;;4303234;33;20921;-72
2021/06/10 09:30:33;;;;;;;;;;;21.10;74.90;;;;;;4303033;33;44861;-72
2021/06/10 09:33:01;;;;;;;;;;;21.10;74.80;;;;;;4315840;33;43656;-72
2021/06/10 09:35:29;;;;;;;;;;;21.10;74.60;;;;;;4316603;33;23151;-73
2021/06/10 09:38:02;;;;;;;;;;;21.10;74.50;;;;;;4316106;33;41579;-72
2021/06/10 09:40:30;;;;;;;;;;;21.20;74.50;;;;;;4302332;33;45523;-72
2021/06/10 09:42:57;;;;;;;;;;;21.20;74.60;;;;;;4302668;33;40065;-73
2021/06/10 09:45:28;;;;;;;;;;;21.20;74.50;;;;;;4305897;33;45536;-72
2021/06/10 09:47:59;;;;;;;;;;;21.20;74.40;;;;;;4319047;33;44169;-72
2021/06/10 09:50:32;;;;;;;;;;;21.20;74.50;;;;;;4305741;33;40400;-72
2021/06/10 09:53:02;;;;;;;;;;;21.20;74.50;;;;;;4306077;33;44061;-72
2021/06/10 09:55:32;;;;;;;;;;;21.20;74.40;;;;;;4318772;33;43673;-72
2021/06/10 09:58:14;;;;;;;;;;;21.20;74.30;;;;;;4307525;33;20064;-72
2021/06/10 10:00:49;;;;;;;;;;;21.20;74.30;;;;;;4319291;33;20025;-72
2021/06/10 10:03:29;;;;;;;;;;;21.20;75.00;;;;;;4319267;33;20049;-72
2021/06/10 10:05:58;;;;;;;;;;;21.30;74.40;;;;;;4319757;33;20022;-72
2021/06/10 10:08:27;;;;;;;;;;;21.30;74.30;;;;;;4305750;33;24196;-72
2021/06/10 10:10:55;;;;;;;;;;;21.30;74.30;;;;;;4306604;33;20006;-71
2021/06/10 10:13:26;;;;;;;;;;;21.30;74.00;;;;;;4306162;33;20542;-72
2021/06/10 10:15:54;;;;;;;;;;;21.30;74.00;;;;;;4318929;33;21506;-71
2021/06/10 10:18:21;;;;;;;;;;;21.30;74.00;;;;;;4319291;33;22050;-71
2021/06/10 10:20:48;;;;;;;;;;;21.40;74.10;;;;;;4305566;33;20006;-72
2021/06/10 10:23:15;;;;;;;;;;;21.40;73.90;;;;;;4319090;33;23103;-72
2021/06/10 10:25:43;;;;;;;;;;;21.40;73.80;;;;;;4305396;33;25874;-73
2021/06/10 10:28:11;;;;;;;;;;;21.50;73.90;;;;;;4318692;33;20005;-71
2021/06/10 10:30:39;;;;;;;;;;;21.50;74.00;;;;;;4319286;33;20040;-71
2021/06/10 10:33:17;;;;;;;;;;;21.50;73.80;;;;;;4318610;33;20823;-71
2021/06/10 10:36:02;;;;;;;;;;;21.50;73.90;;;;;;4318474;33;20053;-72
2021/06/10 10:38:34;;;;;;;;;;;21.60;73.80;;;;;;4304836;33;45071;-71
2021/06/10 10:41:09;;;;;;;;;;;21.60;73.70;;;;;;4319306;33;20016;-72
2021/06/10 10:43:37;;;;;;;;;;;21.70;73.80;;;;;;4319107;33;20017;-71
2021/06/10 10:46:08;;;;;;;;;;;21.70;73.60;;;;;;4305450;33;20442;-71
2021/06/10 10:48:37;;;;;;;;;;;21.70;73.70;;;;;;4305835;33;20014;-71
2021/06/10 10:51:23;;;;;;;;;;;21.70;73.80;;;;;;4305357;33;20002;-71
2021/06/10 10:53:56;;;;;;;;;;;21.80;73.70;;;;;;4318864;33;20013;-71
2021/06/10 10:56:37;;;;;;;;;;;21.80;73.60;;;;;;4319009;33;20018;-72
2021/06/10 10:59:17;;;;;;;;;;;21.80;73.40;;;;;;4317957;33;43195;-76
2021/06/10 11:02:01;;;;;;;;;;;21.80;73.50;;;;;;4304822;33;44070;-74
2021/06/10 11:04:50;;;;;;;;;;;21.80;73.40;;;;;;4292446;33;40441;-74
2021/06/10 11:07:32;;;;;;;;;;;21.90;73.10;;;;;;4319104;33;20014;-73
2021/06/10 11:10:00;;;;;;;;;;;21.90;73.20;;;;;;4317762;33;32078;-72
2021/06/10 11:12:43;;;;;;;;;;;22.00;72.90;;;;;;4318591;33;20005;-72
2021/06/10 11:15:26;;;;;;;;;;;22.00;73.00;;;;;;4304404;33;43920;-72
2021/06/10 11:17:55;;;;;;;;;;;22.10;73.10;;;;;;4317290;33;42473;-73
2021/06/10 11:20:39;;;;;;;;;;;22.10;73.00;;;;;;4317391;33;40537;-73
2021/06/10 11:23:13;;;;;;;;;;;22.10;72.90;;;;;;4304826;33;43474;-73
2021/06/10 11:25:41;;;;;;;;;;;22.10;73.00;;;;;;4317542;33;41564;-72
2021/06/10 11:28:18;;;;;;;;;;;22.20;73.20;;;;;;4317707;33;44321;-72
2021/06/10 11:30:45;;;;;;;;;;;22.20;73.10;;;;;;4304412;33;44691;-72
2021/06/10 11:33:22;;;;;;;;;;;22.20;72.90;;;;;;4317574;33;44029;-72
2021/06/10 11:35:51;;;;;;;;;;;22.30;73.00;;;;;;4304273;33;43410;-73
2021/06/10 11:38:30;;;;;;;;;;;22.30;73.10;;;;;;4317178;33;38890;-73
2021/06/10 11:41:10;;;;;;;;;;;22.40;73.40;;;;;;4305456;33;20053;-72
2021/06/10 11:43:39;;;;;;;;;;;22.50;73.00;;;;;;4317359;33;43246;-73
2021/06/10 11:46:08;;;;;;;;;;;22.50;72.80;;;;;;4317102;33;43692;-73
2021/06/10 11:48:41;;;;;;;;;;;22.60;73.10;;;;;;4297762;33;45519;-73
2021/06/10 11:51:29;;;;;;;;;;;22.60;73.20;;;;;;4292639;33;20001;-73
2021/06/10 11:54:03;;;;;;;;;;;22.60;73.00;;;;;;4304263;33;44714;-79
2021/06/10 11:56:30;;;;;;;;;;;22.70;72.90;;;;;;4305136;33;20017;-78
2021/06/10 11:59:12;;;;;;;;;;;22.70;72.90;;;;;;4304726;33;20016;-78
2021/06/10 12:01:39;;;;;;;;;;;22.70;73.00;;;;;;4317993;33;20026;-78
2021/06/10 12:04:07;;;;;;;;;;;22.70;73.10;;;;;;4304521;33;20048;-78
2021/06/10 12:06:35;;;;;;;;;;;22.70;73.70;;;;;;4317565;33;20052;-74
2021/06/10 12:09:12;;;;;;;;;;;22.70;73.10;;;;;;4317587;33;23429;-76
2021/06/10 12:11:49;;;;;;;;;;;22.70;73.10;;;;;;4304698;33;23921;-76
2021/06/10 12:14:16;;;;;;;;;;;22.80;73.00;;;;;;4305051;33;20371;-77
2021/06/10 12:16:43;;;;;;;;;;;22.80;72.90;;;;;;4317627;33;20069;-78
2021/06/10 12:19:14;;;;;;;;;;;22.80;73.10;;;;;;4303079;33;20009;-75
2021/06/10 12:21:41;;;;;;;;;;;22.80;73.10;;;;;;4304611;33;20009;-76
2021/06/10 12:24:09;;;;;;;;;;;22.80;73.00;;;;;;4304440;33;20454;-77
2021/06/10 12:26:36;;;;;;;;;;;22.90;73.20;;;;;;4311245;33;20044;-77
2021/06/10 12:29:03;;;;;;;;;;;22.90;73.00;;;;;;4303813;33;22282;-77
2021/06/10 12:31:33;;;;;;;;;;;22.90;73.00;;;;;;4304065;33;20044;-76
2021/06/10 12:34:05;;;;;;;;;;;23.00;73.10;;;;;;4317343;33;20014;-77
2021/06/10 12:36:40;;;;;;;;;;;23.00;72.50;;;;;;4317036;33;20022;-77
2021/06/10 12:39:11;;;;;;;;;;;23.00;72.20;;;;;;4317717;33;20415;-77
2021/06/10 12:41:48;;;;;;;;;;;23.10;72.40;;;;;;4304246;33;20002;-76
2021/06/10 12:44:27;;;;;;;;;;;23.10;72.40;;;;;;4304286;33;20366;-76
2021/06/10 12:46:56;;;;;;;;;;;23.20;72.30;;;;;;4317164;33;22255;-76
2021/06/10 12:49:47;;;;;;;;;;;23.20;72.50;;;;;;4317024;33;20115;-75
2021/06/10 12:52:21;;;;;;;;;;;23.20;72.50;;;;;;4317749;33;20002;-75
2021/06/10 12:54:48;;;;;;;;;;;23.20;72.20;;;;;;4317368;33;20048;-75
2021/06/10 12:57:23;;;;;;;;;;;23.20;72.40;;;;;;4316826;33;20017;-75
2021/06/10 12:59:53;;;;;;;;;;;23.20;72.30;;;;;;4303968;33;20325;-75
2021/06/10 13:02:25;;;;;;;;;;;23.20;72.30;;;;;;4316842;33;20013;-75
2021/06/10 13:04:56;;;;;;;;;;;23.20;72.30;;;;;;4317103;33;20049;-75
2021/06/10 13:07:32;;;;;;;;;;;23.20;72.30;;;;;;4316940;33;20073;-75
2021/06/10 13:10:01;;;;;;;;;;;23.20;72.30;;;;;;4317534;33;20025;-75
2021/06/10 13:12:29;;;;;;;;;;;23.20;72.10;;;;;;4317277;33;20066;-75
2021/06/10 13:15:00;;;;;;;;;;;23.20;71.90;;;;;;4316861;33;20013;-75
2021/06/10 13:17:46;;;;;;;;;;;23.30;71.90;;;;;;4316549;33;20014;-76
2021/06/10 13:20:13;;;;;;;;;;;23.30;72.00;;;;;;4303024;33;19997;-75
2021/06/10 13:22:41;;;;;;;;;;;23.30;71.40;;;;;;4316510;33;24210;-76
2021/06/10 13:25:09;;;;;;;;;;;23.40;71.80;;;;;;4304213;33;20399;-75
2021/06/10 13:27:38;;;;;;;;;;;23.40;71.30;;;;;;4291840;33;20006;-76
2021/06/10 13:30:06;;;;;;;;;;;23.40;71.70;;;;;;4316671;33;20002;-75
2021/06/10 13:32:37;;;;;;;;;;;23.40;71.40;;;;;;4316777;33;20025;-75
2021/06/10 13:37:32;;;;;;;;;;;23.50;71.50;;;;;;4316872;33;20070;-75
2021/06/10 13:39:59;;;;;;;;;;;23.50;71.00;;;;;;4316735;33;20049;-75
2021/06/10 13:42:28;;;;;;;;;;;23.50;71.40;;;;;;4302888;33;22994;-74
2021/06/10 13:44:55;;;;;;;;;;;23.50;71.00;;;;;;4316195;33;22672;-75
2021/06/10 13:47:25;;;;;;;;;;;23.50;71.20;;;;;;4302973;33;25750;-75
2021/06/10 13:49:53;;;;;;;;;;;23.60;71.10;;;;;;4316129;33;20661;-75
2021/06/10 13:52:20;;;;;;;;;;;23.60;70.90;;;;;;4316841;33;20320;-75
2021/06/10 13:54:50;;;;;;;;;;;23.60;70.80;;;;;;4316647;33;20010;-75
2021/06/10 13:57:17;;;;;;;;;;;23.60;71.00;;;;;;4316907;33;20049;-75
2021/06/10 13:59:44;;;;;;;;;;;23.70;71.00;;;;;;4303071;33;21465;-75
2021/06/10 14:02:11;;;;;;;;;;;23.70;70.90;;;;;;4303580;33;20020;-75
2021/06/10 14:04:39;;;;;;;;;;;23.70;70.80;;;;;;4316664;33;21559;-75
2021/06/10 14:07:07;;;;;;;;;;;23.70;70.80;;;;;;4303101;33;20029;-75
2021/06/10 14:09:34;;;;;;;;;;;23.70;70.30;;;;;;4303555;33;20049;-75
2021/06/10 14:12:01;;;;;;;;;;;23.80;70.40;;;;;;4316981;33;20045;-74
2021/06/10 14:14:28;;;;;;;;;;;23.80;70.20;;;;;;4316259;33;23120;-75
2021/06/10 14:16:55;;;;;;;;;;;23.80;70.40;;;;;;4316238;33;27490;-75
2021/06/10 14:19:23;;;;;;;;;;;23.90;70.40;;;;;;4315983;33;21615;-75
2021/06/10 14:21:50;;;;;;;;;;;23.90;69.70;;;;;;4316988;33;20002;-75
2021/06/10 14:24:17;;;;;;;;;;;23.90;69.90;;;;;;4303117;33;20458;-75
2021/06/10 14:26:44;;;;;;;;;;;23.90;69.90;;;;;;4315844;33;23222;-74
2021/06/10 14:29:28;;;;;;;;;;;23.90;69.40;;;;;;4316047;33;20383;-74
2021/06/10 14:34:41;;;;;;;;;;;24.00;69.70;;;;;;4319435;33;20021;-75